หน้าหลัก
METAR-TAF:

METAR-TAF

ท่าอากาศยาน :

โพโลเควน, แอฟริกาใต้

ละติจูด: 23-50-43S, ลองจิจูด: 29-27-31E, ความสูง: 1242 ม.

การสังเกตสภาพอากาศปัจจุบัน

รายงานได้ทำขึ้นเมื่อ 1 ชั่วโมงและ 11 นาทีที่แล้ว ณ เวลา 01:00 UTC
ลมสงบ
อุณหภูมิ 13°C
ความชื้น 82%
ความกดอากาศ 1023 hPa

METAR: FAPP 020100Z AUTO 00000KT //// // ////// 13/10 Q1023

เวลา: 04:11 (02:11 UTC)

การพยากรณ์

รายงานได้ทำขึ้นเมื่อ 17 ชั่วโมงและ 11 นาทีที่แล้ว ณ เวลา 09:00 UTC
การพยากรณ์มีผลตั้งแต่วันที่ 01 ณ เวลา 10 UTC จนถึงวันที่ 01 ณ เวลา 18 UTC
ลม 3 นอตจากทิศทางซึ่งแปรผันได้
ทัศนวิสัย 10 กม. หรือมากกว่า
มีเมฆกระจายเป็นบางส่วนที่ความสูง 2000 ฟุต
จาก 01 ณ เวลา 1030 UTC
ลม 10 นอตจากใต้
ทัศนวิสัย 10 กม. หรือมากกว่า
ไม่มีเมฆต่ำกว่า 1,500 ม. และไม่มีเมฆคิวมูโลนิมบัส
กำลังกลายเป็น
ตั้งแต่วันที่ 01 ณ เวลา 16 UTC จนถึงวันที่ 01 ณ เวลา 18 UTC
ลม 3 นอตจากทิศทางซึ่งแปรผันได้

TAF: FAPP 010900Z 0110/0118 VRB03KT 9999 SCT020 TX27/0113Z TN20/0118Z FM011030 17010KT CAVOK BECMG 0116/0118 VRB03KT

สังเกตการณ์สภาพอากาศและพยากรณ์อากาศของสนามบินมากกว่า 4000 แห่ง (รายงาน METAR และ TAF).

สถานีที่ดูได้จะแสดงไว้ด้วยจุดสีเหลืองและสีแดงบนแผนที่.

เลื่อนเมาส์ไปเหนือจุดเพื่อดูชื่อสถานี.

แล้วคลิกเพื่อดูสังเกตการณ์และการพยากรณ์สภาพอากาศ.

ในการเปลี่ยนแผนที่: คลิกที่ปุ่มสีเขียวที่มีกากบาทสีดำเพื่อซูมเข้า; ที่ปุ่มสีเขียวที่มีขีดเพื่อซูมออก; หรือที่ลูกศรสีเขียวเพื่อไปยังแผนที่ที่อยู่ติดกัน.


METAR-TAF: